Ever Unicorn — 9V7963 — position and weather

sailwx.info

Track history (hours):
 
Tides and Currents Weather Stations Pressure Air Temp Water Temp Dewpoint Dewpoint Depression Visibility Wind Speed Wind Dir Waves Ship Positions

Ever Unicorn

Last reported at 2017-Oct-14 04:05 UTC. Time now 2017-Oct-18 13:27 UTC.
Position N 31°05' E 122°39'.

Length 285 m; draft 11.5 m.

Type: Ship (hazmat cat D). MMSI: 564995000.

Date/timePositionNaut miles runAvg speedWind from/ knotsBaromVisibWave heightAir tempDewpointWater temp
2017-Oct-14 04:05N 31°05' E 122°39'114.9
2017-Oct-14 04:00N 31°05' E 122°37'713.2
2017-Oct-14 03:30N 31°06' E 122°30'612.7
2017-Oct-14 03:00N 31°06' E 122°22'611.2
2017-Oct-14 02:30N 31°08' E 122°16'713.3
2017-Oct-14 02:00N 31°11' E 122°10'611.4
2017-Oct-14 01:30N 31°14' E 122°04'613.0
2017-Oct-14 01:00N 31°15' E 121°56'713.6
2017-Oct-14 00:31N 31°17' E 121°49'713.3
2017-Oct-14 00:00N 31°20' E 121°42'611.9
2017-Oct-13 23:30N 31°23' E 121°35'1 1.7
2017-Oct-13 23:00N 31°23' E 121°34'0 0.0
2017-Oct-13 22:30N 31°23' E 121°34'0 0.0
2017-Oct-13 22:00N 31°23' E 121°34'0 0.0
2017-Oct-13 21:30N 31°23' E 121°34'0 0.0
2017-Oct-13 21:01N 31°23' E 121°34'0 0.0
2017-Oct-13 20:30N 31°23' E 121°34'0 0.0
2017-Oct-13 20:00N 31°23' E 121°34'0 0.0
2017-Oct-13 19:30N 31°23' E 121°34'0 0.0
2017-Oct-13 19:00N 31°23' E 121°34'0 0.0
2017-Oct-13 18:30N 31°23' E 121°34'0 0.0
2017-Oct-13 18:00N 31°23' E 121°34'0 0.0
2017-Oct-13 17:30N 31°23' E 121°34'0 0.0
2017-Oct-13 17:00N 31°23' E 121°34'0 0.0
2017-Oct-13 16:30N 31°23' E 121°34'0 0.0
2017-Oct-13 16:00N 31°23' E 121°34'0 0.0
2017-Oct-13 15:30N 31°23' E 121°34'0 0.0
2017-Oct-13 15:00N 31°23' E 121°34'0 0.0
2017-Oct-13 14:30N 31°23' E 121°34'0 0.0
2017-Oct-13 14:00N 31°23' E 121°34'0 0.0
2017-Oct-13 13:30N 31°23' E 121°34'0 0.0
2017-Oct-13 13:00N 31°23' E 121°34'0 0.0
2017-Oct-13 12:30N 31°23' E 121°34'0 0.0
2017-Oct-13 12:00N 31°23' E 121°34'0 0.0
2017-Oct-13 11:31N 31°23' E 121°34'0 0.7
2017-Oct-13 11:00N 31°23' E 121°34'0 0.6
2017-Oct-13 10:30N 31°23' E 121°34'2 3.4
2017-Oct-13 10:00N 31°23' E 121°36'4 8.8
2017-Oct-13 09:30N 31°21' E 121°40'5 9.0
2017-Oct-13 09:00N 31°19' E 121°45'511.0
2017-Oct-13 08:30N 31°16' E 121°51'611.2
2017-Oct-13 08:00N 31°15' E 121°58'510.7
2017-Oct-13 07:30N 31°14' E 122°04'611.7
2017-Oct-13 07:00N 31°11' E 122°10'5 9.1
2017-Oct-13 06:30N 31°09' E 122°14'510.0
2017-Oct-13 06:00N 31°06' E 122°19'510.4
2017-Oct-13 05:30N 31°06' E 122°25'4 7.1
2017-Oct-13 05:00N 31°06' E 122°29'4 7.6
2017-Oct-13 04:30N 31°07' E 122°34'  
2017-Oct-11 00:00N 22°33' E 120°19'0 0.0
2017-Oct-10 23:29N 22°33' E 120°19'0 0.0
2017-Oct-10 22:59N 22°33' E 120°19'0 0.0
2017-Oct-10 22:15N 22°33' E 120°19'0 0.0
2017-Oct-10 22:00N 22°33' E 120°19'0 0.0
2017-Oct-10 21:28N 22°33' E 120°19'0 0.0
2017-Oct-10 20:57N 22°33' E 120°19'0 0.0
2017-Oct-10 20:30N 22°33' E 120°19'0 0.0
2017-Oct-10 20:01N 22°33' E 120°19'0 0.0
2017-Oct-10 19:30N 22°33' E 120°19'0 0.0
2017-Oct-10 19:00N 22°33' E 120°19'0 0.0
2017-Oct-10 18:31N 22°33' E 120°19'0 0.0
2017-Oct-10 18:01N 22°33' E 120°19'0 0.0
2017-Oct-10 17:29N 22°33' E 120°19'0 0.0
2017-Oct-10 17:01N 22°33' E 120°19'0 0.0
2017-Oct-10 16:31N 22°33' E 120°19'0 0.0
2017-Oct-10 16:00N 22°33' E 120°19'0 0.0
2017-Oct-10 15:30N 22°33' E 120°19'0 0.0
2017-Oct-10 15:00N 22°33' E 120°19'0 0.0
2017-Oct-10 14:00N 22°33' E 120°19'0 0.0
2017-Oct-10 13:31N 22°33' E 120°19'0 0.0
2017-Oct-10 13:01N 22°33' E 120°19'0 0.0
2017-Oct-10 12:31N 22°33' E 120°19'0 0.0
2017-Oct-10 12:01N 22°33' E 120°19'0 0.0
2017-Oct-10 11:30N 22°33' E 120°19'0 0.0
2017-Oct-10 11:00N 22°33' E 120°19'0 0.0
2017-Oct-10 10:30N 22°33' E 120°19'0 0.0
2017-Oct-10 10:00N 22°33' E 120°19'0 0.0
2017-Oct-10 09:31N 22°33' E 120°19'0 0.0
2017-Oct-10 09:00N 22°33' E 120°19'0 0.0
2017-Oct-10 08:30N 22°33' E 120°19'0 0.0
2017-Oct-10 08:00N 22°33' E 120°19'0 0.0
2017-Oct-10 07:31N 22°33' E 120°19'3 5.2
2017-Oct-10 07:01N 22°33' E 120°16'3 6.8
2017-Oct-10 06:30N 22°32' E 120°13'2 4.1
2017-Oct-10 06:01N 22°32' E 120°11'2 5.0
2017-Oct-10 05:30N 22°31' E 120°08'713.4
2017-Oct-10 05:00N 22°31' E 120°01'918.0
2017-Oct-10 04:30N 22°30' E 119°51'3219.4
2017-Oct-10 02:52N 22°27' E 119°17'287 8.5
2017-Oct-08 17:11N 22°19' E 114°07'1 0.1
2017-Oct-08 05:06N 22°20' E 114°07'0 4.0
2017-Oct-08 05:00N 22°19' E 114°07'  
Track history (hours):
 
Tides and Currents Weather Stations Pressure Air Temp Water Temp Dewpoint Dewpoint Depression Visibility Wind Speed Wind Dir Waves Ship Positions

Ever Unicorn

Last reported at 2017-Oct-14 04:05 UTC. Time now 2017-Oct-18 13:27 UTC.
Position N 31°05' E 122°39'.

Length 285 m; draft 11.5 m.

Type: Ship (hazmat cat D). MMSI: 564995000.

Date/timePositionNaut miles runAvg speedWind from/ knotsBaromVisibWave heightAir tempDewpointWater temp
2017-Oct-14 04:05N 31°05' E 122°39'114.9
2017-Oct-14 04:00N 31°05' E 122°37'713.2
2017-Oct-14 03:30N 31°06' E 122°30'612.7
2017-Oct-14 03:00N 31°06' E 122°22'611.2
2017-Oct-14 02:30N 31°08' E 122°16'713.3
2017-Oct-14 02:00N 31°11' E 122°10'611.4
2017-Oct-14 01:30N 31°14' E 122°04'613.0
2017-Oct-14 01:00N 31°15' E 121°56'713.6
2017-Oct-14 00:31N 31°17' E 121°49'713.3
2017-Oct-14 00:00N 31°20' E 121°42'611.9
2017-Oct-13 23:30N 31°23' E 121°35'1 1.7
2017-Oct-13 23:00N 31°23' E 121°34'0 0.0
2017-Oct-13 22:30N 31°23' E 121°34'0 0.0
2017-Oct-13 22:00N 31°23' E 121°34'0 0.0
2017-Oct-13 21:30N 31°23' E 121°34'0 0.0
2017-Oct-13 21:01N 31°23' E 121°34'0 0.0
2017-Oct-13 20:30N 31°23' E 121°34'0 0.0
2017-Oct-13 20:00N 31°23' E 121°34'0 0.0
2017-Oct-13 19:30N 31°23' E 121°34'0 0.0
2017-Oct-13 19:00N 31°23' E 121°34'0 0.0
2017-Oct-13 18:30N 31°23' E 121°34'0 0.0
2017-Oct-13 18:00N 31°23' E 121°34'0 0.0
2017-Oct-13 17:30N 31°23' E 121°34'0 0.0
2017-Oct-13 17:00N 31°23' E 121°34'0 0.0
2017-Oct-13 16:30N 31°23' E 121°34'0 0.0
2017-Oct-13 16:00N 31°23' E 121°34'0 0.0
2017-Oct-13 15:30N 31°23' E 121°34'0 0.0
2017-Oct-13 15:00N 31°23' E 121°34'0 0.0
2017-Oct-13 14:30N 31°23' E 121°34'0 0.0
2017-Oct-13 14:00N 31°23' E 121°34'0 0.0
2017-Oct-13 13:30N 31°23' E 121°34'0 0.0
2017-Oct-13 13:00N 31°23' E 121°34'0 0.0
2017-Oct-13 12:30N 31°23' E 121°34'0 0.0
2017-Oct-13 12:00N 31°23' E 121°34'0 0.0
2017-Oct-13 11:31N 31°23' E 121°34'0 0.7
2017-Oct-13 11:00N 31°23' E 121°34'0 0.6
2017-Oct-13 10:30N 31°23' E 121°34'2 3.4
2017-Oct-13 10:00N 31°23' E 121°36'4 8.8
2017-Oct-13 09:30N 31°21' E 121°40'5 9.0
2017-Oct-13 09:00N 31°19' E 121°45'511.0
2017-Oct-13 08:30N 31°16' E 121°51'611.2
2017-Oct-13 08:00N 31°15' E 121°58'510.7
2017-Oct-13 07:30N 31°14' E 122°04'611.7
2017-Oct-13 07:00N 31°11' E 122°10'5 9.1
2017-Oct-13 06:30N 31°09' E 122°14'510.0
2017-Oct-13 06:00N 31°06' E 122°19'510.4
2017-Oct-13 05:30N 31°06' E 122°25'4 7.1
2017-Oct-13 05:00N 31°06' E 122°29'4 7.6
2017-Oct-13 04:30N 31°07' E 122°34'  
2017-Oct-11 00:00N 22°33' E 120°19'0 0.0
2017-Oct-10 23:29N 22°33' E 120°19'0 0.0
2017-Oct-10 22:59N 22°33' E 120°19'0 0.0
2017-Oct-10 22:15N 22°33' E 120°19'0 0.0
2017-Oct-10 22:00N 22°33' E 120°19'0 0.0
2017-Oct-10 21:28N 22°33' E 120°19'0 0.0
2017-Oct-10 20:57N 22°33' E 120°19'0 0.0
2017-Oct-10 20:30N 22°33' E 120°19'0 0.0
2017-Oct-10 20:01N 22°33' E 120°19'0 0.0
2017-Oct-10 19:30N 22°33' E 120°19'0 0.0
2017-Oct-10 19:00N 22°33' E 120°19'0 0.0
2017-Oct-10 18:31N 22°33' E 120°19'0 0.0
2017-Oct-10 18:01N 22°33' E 120°19'0 0.0
2017-Oct-10 17:29N 22°33' E 120°19'0 0.0
2017-Oct-10 17:01N 22°33' E 120°19'0 0.0
2017-Oct-10 16:31N 22°33' E 120°19'0 0.0
2017-Oct-10 16:00N 22°33' E 120°19'0 0.0
2017-Oct-10 15:30N 22°33' E 120°19'0 0.0
2017-Oct-10 15:00N 22°33' E 120°19'0 0.0
2017-Oct-10 14:00N 22°33' E 120°19'0 0.0
2017-Oct-10 13:31N 22°33' E 120°19'0 0.0
2017-Oct-10 13:01N 22°33' E 120°19'0 0.0
2017-Oct-10 12:31N 22°33' E 120°19'0 0.0
2017-Oct-10 12:01N 22°33' E 120°19'0 0.0
2017-Oct-10 11:30N 22°33' E 120°19'0 0.0
2017-Oct-10 11:00N 22°33' E 120°19'0 0.0
2017-Oct-10 10:30N 22°33' E 120°19'0 0.0
2017-Oct-10 10:00N 22°33' E 120°19'0 0.0
2017-Oct-10 09:31N 22°33' E 120°19'0 0.0
2017-Oct-10 09:00N 22°33' E 120°19'0 0.0
2017-Oct-10 08:30N 22°33' E 120°19'0 0.0
2017-Oct-10 08:00N 22°33' E 120°19'0 0.0
2017-Oct-10 07:31N 22°33' E 120°19'3 5.2
2017-Oct-10 07:01N 22°33' E 120°16'3 6.8
2017-Oct-10 06:30N 22°32' E 120°13'2 4.1
2017-Oct-10 06:01N 22°32' E 120°11'2 5.0
2017-Oct-10 05:30N 22°31' E 120°08'713.4
2017-Oct-10 05:00N 22°31' E 120°01'918.0
2017-Oct-10 04:30N 22°30' E 119°51'3219.4
2017-Oct-10 02:52N 22°27' E 119°17'287 8.5
2017-Oct-08 17:11N 22°19' E 114°07'1 0.1
2017-Oct-08 05:06N 22°20' E 114°07'0 4.0
2017-Oct-08 05:00N 22°19' E 114°07'  

Dump ship's entire track history